Greenwood County Airport


Codes: KGRD/GRD
Name: Greenwood County Airport
City: Greenwood
Country: United States
Elevation: 631 ft.

Photos at Greenwood County Airport


   Photos courtesy of SpottingLog. You can add your own sightings and photos by signing up for a free trial today.



No photos found.

Weather at Greenwood County Airport


Time (UTC)DescriptionTempratureWindCloud coverageVisibilityPressureHumidity
15-Apr-2024 15:00Clear Sky24°C9 mph, 0%10000m1017hPa59%
15-Apr-2024 18:00Clear Sky26°C11 mph, 0%10000m1017hPa50%
15-Apr-2024 21:00Clear Sky27°C11 mph, W0%10000m1016hPa41%
16-Apr-2024 00:00Clear Sky21°C7 mph, SW0%10000m1016hPa59%
16-Apr-2024 03:00Overcast Clouds18°C7 mph, SW100%10000m1017hPa62%
16-Apr-2024 06:00Overcast Clouds17°C7 mph, SW98%10000m1017hPa68%
16-Apr-2024 09:00Overcast Clouds16°C4 mph, SW100%10000m1018hPa75%
16-Apr-2024 12:00Overcast Clouds17°C4 mph, SW85%10000m1019hPa75%
16-Apr-2024 15:00Broken Clouds24°C7 mph, SW84%10000m1020hPa49%
16-Apr-2024 18:00Overcast Clouds26°C7 mph, SW92%10000m1018hPa41%
16-Apr-2024 21:00Overcast Clouds27°C7 mph, S100%10000m1017hPa37%
17-Apr-2024 00:00Overcast Clouds21°C7 mph, S100%10000m1018hPa65%
17-Apr-2024 03:00Overcast Clouds19°C4 mph, SW100%10000m1019hPa73%
17-Apr-2024 06:00Overcast Clouds18°C4 mph, SW100%10000m1018hPa73%
17-Apr-2024 09:00Overcast Clouds17°C4 mph, SW100%10000m1018hPa76%
17-Apr-2024 12:00Overcast Clouds18°C4 mph, SW100%10000m1019hPa78%
17-Apr-2024 15:00Overcast Clouds23°C7 mph, SW100%10000m1019hPa56%
17-Apr-2024 18:00Overcast Clouds28°C11 mph, SW100%10000m1017hPa39%
17-Apr-2024 21:00Overcast Clouds28°C9 mph, SW100%10000m1015hPa39%
18-Apr-2024 00:00Overcast Clouds20°C4 mph, SW100%10000m1016hPa67%
18-Apr-2024 03:00Overcast Clouds20°C7 mph, SW100%10000m1017hPa70%
18-Apr-2024 06:00Light Rain17°C7 mph, W100%10000m1016hPa89%
18-Apr-2024 09:00Clear Sky16°C7 mph, SW3%10000m1016hPa95%
18-Apr-2024 12:00Clear Sky17°C4 mph, SW2%10000m1017hPa92%
18-Apr-2024 15:00Clear Sky26°C9 mph, W0%10000m1017hPa58%
18-Apr-2024 18:00Clear Sky30°C9 mph, W0%10000m1015hPa44%
18-Apr-2024 21:00Clear Sky30°C7 mph, NW0%10000m1013hPa41%
19-Apr-2024 00:00Clear Sky24°C4 mph, SW0%10000m1014hPa64%
19-Apr-2024 03:00Few Clouds20°C4 mph, SW14%10000m1014hPa71%
19-Apr-2024 06:00Scattered Clouds18°C4 mph, W33%10000m1014hPa83%
19-Apr-2024 09:00Few Clouds17°C4 mph, NW16%10000m1014hPa88%
19-Apr-2024 12:00Light Rain18°C7 mph, W56%10000m1015hPa92%
19-Apr-2024 15:00Light Rain23°C7 mph, W100%10000m1016hPa72%
19-Apr-2024 18:00Overcast Clouds24°C7 mph, SW100%10000m1014hPa64%
19-Apr-2024 21:00Overcast Clouds27°C9 mph, W100%10000m1012hPa52%
20-Apr-2024 00:00Overcast Clouds23°C7 mph, W100%10000m1012hPa72%
20-Apr-2024 03:00Overcast Clouds21°C7 mph, W100%10000m1013hPa84%
20-Apr-2024 06:00Overcast Clouds18°C4 mph, W100%10000m1013hPa96%
20-Apr-2024 09:00Overcast Clouds17°C4 mph, NW100%10000m1013hPa93%
20-Apr-2024 12:00Overcast Clouds19°C2 mph, NE96%10000m1015hPa87%